createdAt,value
2018-12-24T00:00:01.251Z,97112.70
2018-12-24T00:00:32.850Z,97106.80
2018-12-24T00:01:04.446Z,97103.02
2018-12-24T00:01:36.062Z,97109.03
2018-12-24T00:02:07.676Z,97107.39
2018-12-24T00:02:39.292Z,97108.79
2018-12-24T00:03:10.903Z,97100.72
2018-12-24T00:03:42.493Z,97088.77
2018-12-24T00:04:14.088Z,97100.84
2018-12-24T00:04:45.668Z,97103.45
2018-12-24T00:05:17.276Z,97104.41
2018-12-24T00:05:48.869Z,97104.85
2018-12-24T00:06:20.482Z,97107.02
2018-12-24T00:06:52.091Z,97106.59
2018-12-24T00:07:23.721Z,97110.43
2018-12-24T00:07:55.305Z,97109.59
2018-12-24T00:08:26.956Z,97113.50
2018-12-24T00:08:58.557Z,97111.02
2018-12-24T00:09:30.159Z,97115.34
2018-12-24T00:10:01.769Z,97114.58
2018-12-24T00:10:33.378Z,97114.16
2018-12-24T00:11:04.981Z,97112.14
2018-12-24T00:11:36.575Z,97107.53
2018-12-24T00:12:08.198Z,97111.42
2018-12-24T00:12:39.780Z,97109.40
2018-12-24T00:13:11.374Z,97109.42
2018-12-24T00:13:42.980Z,97111.16
2018-12-24T00:14:14.615Z,97109.09
2018-12-24T00:14:46.213Z,97107.86
2018-12-24T00:15:17.815Z,97112.61
2018-12-24T00:15:49.415Z,97113.47
2018-12-24T00:16:21.000Z,97113.98
2018-12-24T00:16:52.637Z,97110.17
2018-12-24T00:17:24.243Z,97105.52
2018-12-24T00:17:55.837Z,97106.85
2018-12-24T00:18:27.449Z,97101.73
2018-12-24T00:18:59.067Z,97105.17
2018-12-24T00:19:30.647Z,97105.63
2018-12-24T00:20:02.248Z,97096.34
2018-12-24T00:20:33.846Z,97093.86
2018-12-24T00:21:05.447Z,97095.14
2018-12-24T00:21:37.056Z,97101.55
2018-12-24T00:22:08.672Z,97101.16
2018-12-24T00:22:40.269Z,97097.81
2018-12-24T00:23:11.867Z,97101.69
2018-12-24T00:23:43.465Z,97097.86
2018-12-24T00:24:15.068Z,97101.77
2018-12-24T00:24:46.676Z,97100.50
2018-12-24T00:25:18.285Z,97094.19
2018-12-24T00:25:49.886Z,97098.48
2018-12-24T00:26:21.488Z,97096.00
2018-12-24T00:26:53.091Z,97097.72
2018-12-24T00:27:24.738Z,97104.57
2018-12-24T00:27:56.330Z,97080.50
2018-12-24T00:28:27.921Z,97099.13
2018-12-24T00:28:59.544Z,97102.16
2018-12-24T00:29:31.138Z,97097.07
2018-12-24T00:30:02.730Z,97102.27
2018-12-24T00:30:34.338Z,97098.02
2018-12-24T00:31:05.932Z,97101.02
2018-12-24T00:31:37.521Z,97105.67
2018-12-24T00:32:09.127Z,97103.11
2018-12-24T00:32:40.744Z,97104.75
2018-12-24T00:33:12.338Z,97113.72
2018-12-24T00:33:43.915Z,97112.42
2018-12-24T00:34:15.532Z,97112.00
2018-12-24T00:34:47.143Z,97111.98
2018-12-24T00:35:18.742Z,97110.70
2018-12-24T00:35:50.338Z,97111.10
2018-12-24T00:36:21.934Z,97113.16
2018-12-24T00:36:53.536Z,97111.89
2018-12-24T00:37:25.155Z,97116.87
2018-12-24T00:37:56.745Z,97116.38
2018-12-24T00:38:28.342Z,97117.14
2018-12-24T00:38:59.948Z,97121.77
2018-12-24T00:39:31.556Z,97121.26
2018-12-24T00:40:03.167Z,97125.91
2018-12-24T00:40:34.771Z,97122.86
2018-12-24T00:41:06.367Z,97121.13
2018-12-24T00:41:37.962Z,97125.30
2018-12-24T00:42:15.853Z,97123.95
2018-12-24T00:42:41.276Z,97126.06
2018-12-24T00:43:12.884Z,97130.72
2018-12-24T00:43:44.489Z,97130.63
2018-12-24T00:44:16.084Z,97133.96
2018-12-24T00:44:47.683Z,97133.08
2018-12-24T00:45:19.293Z,97130.06
2018-12-24T00:45:50.937Z,97130.84
2018-12-24T00:46:22.533Z,97130.83
2018-12-24T00:46:54.137Z,97125.22
2018-12-24T00:47:25.747Z,97126.50
2018-12-24T00:47:57.359Z,97128.62
2018-12-24T00:48:28.959Z,97132.88
2018-12-24T00:49:00.554Z,97129.44
2018-12-24T00:49:32.181Z,97126.02
2018-12-24T00:50:03.785Z,97138.27
2018-12-24T00:50:35.382Z,97141.20
2018-12-24T00:51:06.989Z,97133.05
2018-12-24T00:51:38.585Z,97134.34
2018-12-24T00:52:10.186Z,97136.85
2018-12-24T00:52:41.801Z,97142.30
2018-12-24T00:53:13.450Z,97143.14
2018-12-24T00:53:45.041Z,97145.68
2018-12-24T00:54:16.650Z,97145.27
2018-12-24T00:54:48.247Z,97150.35
2018-12-24T00:55:19.855Z,97147.72
2018-12-24T00:55:51.463Z,97149.86
2018-12-24T00:56:23.069Z,97155.38
2018-12-24T00:56:54.681Z,97144.52
2018-12-24T00:57:26.269Z,97158.27
2018-12-24T00:57:57.877Z,97155.70
2018-12-24T00:58:29.464Z,97152.70
2018-12-24T00:59:01.075Z,97155.63
2018-12-24T00:59:32.660Z,97149.64
2018-12-24T01:00:04.255Z,97156.11
2018-12-24T01:00:35.864Z,97154.86
2018-12-24T01:01:07.486Z,97156.98
2018-12-24T01:01:39.112Z,97157.47
2018-12-24T01:02:10.724Z,97159.95
2018-12-24T01:02:42.322Z,97154.39
2018-12-24T01:03:13.923Z,97156.90
2018-12-24T01:03:45.622Z,97156.90
2018-12-24T01:04:17.222Z,97156.53
2018-12-24T01:04:48.818Z,97157.39
2018-12-24T01:05:20.413Z,97155.67
2018-12-24T01:05:52.006Z,97154.41
2018-12-24T01:06:23.607Z,97155.67
2018-12-24T01:06:55.207Z,97153.48
2018-12-24T01:07:26.787Z,97149.23
2018-12-24T01:07:58.377Z,97152.63
2018-12-24T01:08:29.985Z,97148.77
2018-12-24T01:09:01.734Z,97146.19
2018-12-24T01:09:33.361Z,97153.42
2018-12-24T01:10:04.958Z,97150.88
2018-12-24T01:10:36.543Z,97153.88
2018-12-24T01:11:08.138Z,97154.72
2018-12-24T01:11:39.740Z,97150.56
2018-12-24T01:12:11.354Z,97147.06
2018-12-24T01:12:42.955Z,97149.19
2018-12-24T01:13:14.547Z,97142.89
2018-12-24T01:13:46.168Z,97150.05
2018-12-24T01:14:17.760Z,97147.05
2018-12-24T01:14:49.354Z,97148.77
2018-12-24T01:15:20.940Z,97150.88
2018-12-24T01:15:52.537Z,97145.79
2018-12-24T01:16:24.144Z,97148.42
2018-12-24T01:16:55.737Z,97148.42
2018-12-24T01:17:27.334Z,97141.19
2018-12-24T01:17:58.940Z,97137.80
2018-12-24T01:18:30.539Z,97135.31
2018-12-24T01:19:02.200Z,97135.73
2018-12-24T01:19:33.797Z,97130.62
2018-12-24T01:20:05.407Z,97127.59
2018-12-24T01:20:37.006Z,97128.45
2018-12-24T01:21:08.602Z,97127.64
2018-12-24T01:21:40.193Z,97129.36
2018-12-24T01:22:11.791Z,97123.83
2018-12-24T01:22:43.432Z,97123.84
2018-12-24T01:23:15.030Z,97125.57
2018-12-24T01:23:46.640Z,97126.48
2018-12-24T01:24:18.276Z,97122.23
2018-12-24T01:24:49.883Z,97123.92
2018-12-24T01:25:21.480Z,97127.70
2018-12-24T01:25:53.069Z,97124.30
2018-12-24T01:26:24.672Z,97128.97
2018-12-24T01:26:56.266Z,97132.28
2018-12-24T01:27:27.880Z,97128.01
2018-12-24T01:27:59.484Z,97130.10
2018-12-24T01:28:31.091Z,97132.22
2018-12-24T01:29:02.686Z,97128.38
2018-12-24T01:29:34.324Z,97124.55
2018-12-24T01:30:05.919Z,97124.94
2018-12-24T01:30:37.526Z,97126.69
2018-12-24T01:31:09.119Z,97125.43
2018-12-24T01:31:40.713Z,97122.43
2018-12-24T01:32:12.310Z,97123.73
2018-12-24T01:32:43.900Z,97126.78
2018-12-24T01:33:15.497Z,97124.67
2018-12-24T01:33:47.108Z,97118.39
2018-12-24T01:34:18.760Z,97119.17
2018-12-24T01:34:50.387Z,97116.70
2018-12-24T01:35:21.996Z,97117.95
2018-12-24T01:35:53.594Z,97113.30
2018-12-24T01:36:25.190Z,97113.32
2018-12-24T01:36:56.795Z,97113.80
2018-12-24T01:37:28.379Z,97115.55
2018-12-24T01:37:59.979Z,97117.69
2018-12-24T01:38:31.574Z,97112.19
2018-12-24T01:39:03.171Z,97118.16
2018-12-24T01:39:34.794Z,97111.80
2018-12-24T01:40:06.376Z,97114.44
2018-12-24T01:40:37.969Z,97105.56
2018-12-24T01:41:09.577Z,97115.81
2018-12-24T01:41:41.184Z,97118.81
2018-12-24T01:42:12.792Z,97114.14
2018-12-24T01:42:44.385Z,97116.75
2018-12-24T01:43:15.977Z,97118.89
2018-12-24T01:43:47.575Z,97121.86
2018-12-24T01:44:19.169Z,97116.77
2018-12-24T01:44:50.800Z,97126.16
2018-12-24T01:45:22.406Z,97118.91
2018-12-24T01:45:54.008Z,97119.78
2018-12-24T01:46:25.630Z,97121.56
2018-12-24T01:46:57.240Z,97125.83
2018-12-24T01:47:28.834Z,97119.02
2018-12-24T01:48:00.434Z,97111.80
2018-12-24T01:48:32.036Z,97112.28
2018-12-24T01:49:03.630Z,97107.63
2018-12-24T01:49:35.274Z,97100.41
2018-12-24T01:50:06.884Z,97099.11
2018-12-24T01:50:38.489Z,97099.11
2018-12-24T01:51:10.087Z,97104.22
2018-12-24T01:51:41.676Z,97105.52
2018-12-24T01:52:13.288Z,97102.62
2018-12-24T01:52:44.896Z,97108.12
2018-12-24T01:53:16.503Z,97114.95
2018-12-24T01:53:48.120Z,97109.83
2018-12-24T01:54:19.717Z,97109.42
2018-12-24T01:54:51.348Z,97114.94
2018-12-24T01:55:22.946Z,97108.55
2018-12-24T01:55:54.559Z,97108.12
2018-12-24T01:56:26.153Z,97104.30
2018-12-24T01:56:57.740Z,97106.88
2018-12-24T01:57:29.322Z,97109.42
2018-12-24T01:58:00.908Z,97107.33
2018-12-24T01:58:32.498Z,97110.36
2018-12-24T01:59:04.104Z,97103.97
2018-12-24T01:59:35.698Z,97106.47
2018-12-24T02:00:07.331Z,97109.47
2018-12-24T02:00:38.944Z,97111.59
2018-12-24T02:01:10.533Z,97105.20
2018-12-24T02:01:42.112Z,97114.54
2018-12-24T02:02:13.705Z,97108.66
2018-12-24T02:02:45.298Z,97112.50
2018-12-24T02:03:16.891Z,97109.12
2018-12-24T02:03:48.482Z,97114.22
2018-12-24T02:04:20.067Z,97114.67
2018-12-24T02:04:51.715Z,97101.88
2018-12-24T02:05:23.302Z,97112.23
2018-12-24T02:05:54.912Z,97114.41
2018-12-24T02:06:26.496Z,97119.44
2018-12-24T02:06:58.100Z,97114.77
2018-12-24T02:07:29.713Z,97116.45
2018-12-24T02:08:01.319Z,97123.72
2018-12-24T02:08:32.933Z,97093.16
2018-12-24T02:09:04.544Z,97114.79
2018-12-24T02:09:36.159Z,97117.77
2018-12-24T02:10:07.780Z,97112.71
2018-12-24T02:10:39.378Z,97110.16
2018-12-24T02:11:10.964Z,97102.48
2018-12-24T02:11:42.558Z,97106.73
2018-12-24T02:12:14.161Z,97107.55
2018-12-24T02:12:45.767Z,97109.24
2018-12-24T02:13:17.361Z,97104.63
2018-12-24T02:13:48.958Z,97097.53
2018-12-24T02:14:20.553Z,97109.62
2018-12-24T02:14:52.150Z,97108.19
2018-12-24T02:15:23.776Z,97107.27
2018-12-24T02:15:55.383Z,97106.36
2018-12-24T02:16:26.990Z,97110.47
2018-12-24T02:16:58.601Z,97108.51
2018-12-24T02:17:30.216Z,97110.20
2018-12-24T02:18:01.831Z,97113.14
2018-12-24T02:18:33.440Z,97110.05
2018-12-24T02:19:05.049Z,97108.27
2018-12-24T02:19:36.646Z,97113.67
2018-12-24T02:20:08.232Z,97120.38
2018-12-24T02:20:39.870Z,97116.27
2018-12-24T02:21:11.471Z,97106.02
2018-12-24T02:21:43.084Z,97111.84
2018-12-24T02:22:14.697Z,97106.56
2018-12-24T02:22:46.316Z,97108.12
2018-12-24T02:23:17.914Z,97104.11
2018-12-24T02:23:49.552Z,97105.59
2018-12-24T02:24:21.151Z,97101.62
2018-12-24T02:24:52.732Z,97105.69
2018-12-24T02:25:24.330Z,97102.55
2018-12-24T02:25:55.934Z,97105.42
2018-12-24T02:26:27.525Z,97104.89
2018-12-24T02:26:59.131Z,97106.52
2018-12-24T02:27:30.744Z,97106.05
2018-12-24T02:28:02.328Z,97108.56
2018-12-24T02:28:33.912Z,97111.42
2018-12-24T02:29:05.525Z,97104.11
2018-12-24T02:29:37.136Z,97105.35
2018-12-24T02:30:08.761Z,97108.70
2018-12-24T02:30:40.411Z,97085.81
2018-12-24T02:31:12.010Z,97111.14
2018-12-24T02:31:43.597Z,97113.64
2018-12-24T02:32:15.208Z,97111.56
2018-12-24T02:32:46.816Z,97109.81
2018-12-24T02:33:18.416Z,97110.20
2018-12-24T02:33:50.001Z,97113.63
2018-12-24T02:34:21.612Z,97110.20
2018-12-24T02:34:53.260Z,97111.48
2018-12-24T02:35:24.868Z,97113.58
2018-12-24T02:35:56.496Z,97111.47
2018-12-24T02:36:28.117Z,97110.50
2018-12-24T02:36:59.700Z,97110.09
2018-12-24T02:37:31.298Z,97116.08
2018-12-24T02:38:02.911Z,97109.69
2018-12-24T02:38:34.518Z,97113.16
2018-12-24T02:39:06.129Z,97112.33
2018-12-24T02:39:37.718Z,97115.31
2018-12-24T02:40:09.318Z,97106.02
2018-12-24T02:40:40.914Z,97102.22
2018-12-24T02:41:12.536Z,97108.61
2018-12-24T02:41:44.148Z,97113.30
2018-12-24T02:42:15.751Z,97104.01
2018-12-24T02:42:52.361Z,97105.70
2018-12-24T02:43:19.008Z,97107.34
2018-12-24T02:43:50.600Z,97100.95
2018-12-24T02:44:22.201Z,97108.20
2018-12-24T02:44:53.809Z,97106.91
2018-12-24T02:45:25.406Z,97102.29
2018-12-24T02:45:57.037Z,97103.17
2018-12-24T02:46:28.629Z,97098.89
2018-12-24T02:47:00.223Z,97101.47
2018-12-24T02:47:31.827Z,97104.03
2018-12-24T02:48:03.436Z,97098.50
2018-12-24T02:48:35.039Z,97091.27
2018-12-24T02:49:06.639Z,97098.89
2018-12-24T02:49:38.249Z,97096.70
2018-12-24T02:50:09.849Z,97097.95
2018-12-24T02:50:41.447Z,97100.49
2018-12-24T02:51:13.073Z,97100.47
2018-12-24T02:51:44.669Z,97097.50
2018-12-24T02:52:16.262Z,97097.02
2018-12-24T02:52:47.854Z,97106.81
2018-12-24T02:53:19.450Z,97097.91
2018-12-24T02:53:51.033Z,97105.63
2018-12-24T02:54:22.633Z,97108.62
2018-12-24T02:54:54.243Z,97105.70
2018-12-24T02:55:25.838Z,97108.27
2018-12-24T02:55:57.444Z,97105.23
2018-12-24T02:56:29.066Z,97105.70
2018-12-24T02:57:00.653Z,97108.28
2018-12-24T02:57:32.265Z,97108.75
2018-12-24T02:58:03.887Z,97101.54
2018-12-24T02:58:35.513Z,97106.65
2018-12-24T02:59:07.114Z,97110.48
2018-12-24T02:59:38.720Z,97104.56
2018-12-24T03:00:10.319Z,97100.72
2018-12-24T03:00:41.928Z,97104.56
2018-12-24T03:01:13.551Z,97105.94
2018-12-24T03:01:45.129Z,97101.31
2018-12-24T03:02:16.745Z,97072.56
2018-12-24T03:02:48.355Z,97100.45
2018-12-24T03:03:19.954Z,97099.64
2018-12-24T03:03:51.552Z,97095.36
2018-12-24T03:04:23.146Z,97103.91
2018-12-24T03:04:54.729Z,97098.38
2018-12-24T03:05:26.326Z,97094.59
2018-12-24T03:05:57.910Z,97094.64
2018-12-24T03:06:29.535Z,97095.14
2018-12-24T03:07:01.129Z,97092.18
2018-12-24T03:07:32.726Z,97096.45
2018-12-24T03:08:04.337Z,97098.59
2018-12-24T03:08:35.945Z,97102.50
2018-12-24T03:09:07.545Z,97099.97
2018-12-24T03:09:39.156Z,97096.63
2018-12-24T03:10:10.755Z,97100.06
2018-12-24T03:10:42.354Z,97100.94
2018-12-24T03:11:14.073Z,97102.28
2018-12-24T03:11:45.639Z,97101.90
2018-12-24T03:12:17.255Z,97104.09
2018-12-24T03:12:48.869Z,97109.22
2018-12-24T03:13:20.476Z,97110.08
2018-12-24T03:13:52.074Z,97112.23
2018-12-24T03:14:23.665Z,97115.28
2018-12-24T03:14:55.274Z,97114.45
2018-12-24T03:15:26.878Z,97108.91
2018-12-24T03:15:58.468Z,97109.83
2018-12-24T03:16:30.091Z,97111.13
2018-12-24T03:17:01.760Z,97111.16
2018-12-24T03:17:33.348Z,97097.58
2018-12-24T03:18:04.948Z,97104.44
2018-12-24T03:18:36.562Z,97103.17
2018-12-24T03:19:08.158Z,97101.53
2018-12-24T03:19:39.754Z,97099.42
2018-12-24T03:20:11.349Z,97094.75
2018-12-24T03:20:42.955Z,97101.20
2018-12-24T03:21:14.554Z,97100.73
2018-12-24T03:21:46.189Z,97105.36
2018-12-24T03:22:17.783Z,97107.43
2018-12-24T03:22:49.377Z,97109.95
2018-12-24T03:23:20.984Z,97107.34
2018-12-24T03:23:52.595Z,97121.37
2018-12-24T03:24:24.181Z,97112.59
2018-12-24T03:24:55.778Z,97116.35
2018-12-24T03:25:27.374Z,97118.56
2018-12-24T03:25:58.979Z,97118.58
2018-12-24T03:26:30.593Z,97119.00
2018-12-24T03:27:02.209Z,97120.37
2018-12-24T03:27:33.802Z,97122.41
2018-12-24T03:28:05.403Z,97123.18
2018-12-24T03:28:36.998Z,97122.67
2018-12-24T03:29:08.599Z,97124.00
2018-12-24T03:29:40.197Z,97130.71
2018-12-24T03:30:11.812Z,97125.60
2018-12-24T03:30:43.416Z,97130.71
2018-12-24T03:31:15.039Z,97131.98
2018-12-24T03:31:46.649Z,97129.03
2018-12-24T03:32:18.287Z,97136.72
2018-12-24T03:32:49.897Z,97136.30
2018-12-24T03:33:21.509Z,97146.48
2018-12-24T03:33:53.106Z,97137.13
2018-12-24T03:34:24.712Z,97144.81
2018-12-24T03:34:56.311Z,97144.02
2018-12-24T03:35:27.910Z,97144.46
2018-12-24T03:35:59.504Z,97144.91
2018-12-24T03:36:31.092Z,97145.32
2018-12-24T03:37:02.705Z,97142.77
2018-12-24T03:37:34.408Z,97147.45
2018-12-24T03:38:06.007Z,97152.15
2018-12-24T03:38:37.597Z,97149.17
2018-12-24T03:39:09.205Z,97155.98
2018-12-24T03:39:40.818Z,97155.94
2018-12-24T03:40:12.406Z,97159.38
2018-12-24T03:40:44.006Z,97157.64
2018-12-24T03:41:15.598Z,97155.47
2018-12-24T03:41:47.194Z,97152.97
2018-12-24T03:42:18.823Z,97155.45
2018-12-24T03:42:50.422Z,97153.30
2018-12-24T03:43:22.036Z,97156.22
2018-12-24T03:43:53.620Z,97160.47
2018-12-24T03:44:25.223Z,97161.75
2018-12-24T03:44:56.812Z,97159.17
2018-12-24T03:45:28.405Z,97162.56
2018-12-24T03:46:00.016Z,97160.01
2018-12-24T03:46:31.619Z,97157.37
2018-12-24T03:47:03.225Z,97157.80
2018-12-24T03:47:34.860Z,97166.70
2018-12-24T03:48:06.601Z,97162.88
2018-12-24T03:48:38.116Z,97138.67
2018-12-24T03:49:09.712Z,97156.41
2018-12-24T03:49:41.319Z,97156.41
2018-12-24T03:50:12.905Z,97160.64
2018-12-24T03:50:44.506Z,97151.64
2018-12-24T03:51:16.102Z,97154.18
2018-12-24T03:51:47.704Z,97151.60
2018-12-24T03:52:19.312Z,97149.83
2018-12-24T03:52:50.952Z,97148.95
2018-12-24T03:53:22.577Z,97149.83
2018-12-24T03:53:54.182Z,97159.09
2018-12-24T03:54:25.785Z,97160.34
2018-12-24T03:54:57.371Z,97162.45
2018-12-24T03:55:29.082Z,97165.38
2018-12-24T03:56:00.613Z,97167.92
2018-12-24T03:56:32.204Z,97159.80
2018-12-24T03:57:03.808Z,97168.27
2018-12-24T03:57:35.441Z,97168.68
2018-12-24T03:58:07.082Z,97169.95
2018-12-24T03:58:38.678Z,97175.47
2018-12-24T03:59:10.318Z,97172.08
2018-12-24T03:59:41.932Z,97174.17
2018-12-24T04:00:13.536Z,97174.12
2018-12-24T04:00:45.152Z,97174.06
2018-12-24T04:01:16.749Z,97176.52
2018-12-24T04:01:48.342Z,97173.97
2018-12-24T04:02:19.964Z,97172.20
2018-12-24T04:02:51.617Z,97177.73
2018-12-24T04:03:23.214Z,97178.94
2018-12-24T04:03:54.810Z,97175.50
2018-12-24T04:04:26.420Z,97182.31
2018-12-24T04:04:58.032Z,97182.76
2018-12-24T04:05:29.621Z,97175.09
2018-12-24T04:06:01.218Z,97185.31
2018-12-24T04:06:32.825Z,97178.48
2018-12-24T04:07:04.422Z,97182.68
2018-12-24T04:07:36.104Z,97183.06
2018-12-24T04:08:07.725Z,97182.56
2018-12-24T04:08:39.321Z,97191.47
2018-12-24T04:09:10.909Z,97189.36
2018-12-24T04:09:42.508Z,97185.50
2018-12-24T04:10:14.120Z,97188.84
2018-12-24T04:10:45.727Z,97191.41
2018-12-24T04:11:17.317Z,97193.59
2018-12-24T04:11:48.925Z,97191.05
2018-12-24T04:12:20.532Z,97195.77
2018-12-24T04:12:52.125Z,97195.84
2018-12-24T04:13:23.749Z,97200.12
2018-12-24T04:13:55.354Z,97202.35
2018-12-24T04:14:26.964Z,97204.09
2018-12-24T04:14:58.577Z,97208.34
2018-12-24T04:15:30.214Z,97208.00
2018-12-24T04:16:01.809Z,97202.07
2018-12-24T04:16:33.406Z,97198.25
2018-12-24T04:17:05.006Z,97203.39
2018-12-24T04:17:36.624Z,97204.69
2018-12-24T04:18:08.217Z,97205.17
2018-12-24T04:18:39.824Z,97203.08
2018-12-24T04:19:11.418Z,97202.66
2018-12-24T04:19:43.025Z,97205.22
2018-12-24T04:20:14.621Z,97207.24
2018-12-24T04:20:46.223Z,97207.24
2018-12-24T04:21:17.823Z,97203.52
2018-12-24T04:21:49.421Z,97214.98
2018-12-24T04:22:21.024Z,97209.05
2018-12-24T04:22:52.619Z,97208.61
2018-12-24T04:23:24.271Z,97211.24
2018-12-24T04:23:55.868Z,97218.49
2018-12-24T04:24:27.480Z,97218.00
2018-12-24T04:24:59.078Z,97213.75
2018-12-24T04:25:30.668Z,97213.69
2018-12-24T04:26:02.261Z,97218.69
2018-12-24T04:26:33.857Z,97221.13
2018-12-24T04:27:05.452Z,97221.97
2018-12-24T04:27:41.617Z,97218.99
2018-12-24T04:28:08.738Z,97222.84
2018-12-24T04:28:40.358Z,97204.26
2018-12-24T04:29:11.964Z,97220.86
2018-12-24T04:29:43.548Z,97224.70
2018-12-24T04:30:15.162Z,97228.53
2018-12-24T04:30:46.786Z,97228.55
2018-12-24T04:31:18.388Z,97201.00
2018-12-24T04:31:49.969Z,97232.46
2018-12-24T04:32:21.562Z,97229.91
2018-12-24T04:32:53.158Z,97224.88
2018-12-24T04:33:24.765Z,97222.33
2018-12-24T04:33:56.388Z,97233.41
2018-12-24T04:34:27.977Z,97236.81
2018-12-24T04:34:59.583Z,97241.50
2018-12-24T04:35:31.178Z,97235.95
2018-12-24T04:36:02.782Z,97239.80
2018-12-24T04:36:34.378Z,97241.94
2018-12-24T04:37:05.985Z,97241.08
2018-12-24T04:37:37.589Z,97245.36
2018-12-24T04:38:09.191Z,97242.37
2018-12-24T04:38:40.780Z,97242.41
2018-12-24T04:39:12.388Z,97247.98
2018-12-24T04:39:43.989Z,97253.95
2018-12-24T04:40:15.564Z,97247.19
2018-12-24T04:40:47.158Z,97251.00
2018-12-24T04:41:18.769Z,97260.39
2018-12-24T04:41:50.381Z,97263.44
2018-12-24T04:42:21.976Z,97258.74
2018-12-24T04:42:53.571Z,97262.17
2018-12-24T04:43:32.230Z,97267.81
2018-12-24T04:43:59.025Z,97267.50
2018-12-24T04:44:28.520Z,97273.52
2018-12-24T04:45:00.168Z,97274.00
2018-12-24T04:45:31.755Z,97277.92
2018-12-24T04:46:03.354Z,97273.34
2018-12-24T04:46:34.960Z,97276.34
2018-12-24T04:47:06.566Z,97280.67
2018-12-24T04:47:38.174Z,97279.06
2018-12-24T04:48:09.785Z,97286.82
2018-12-24T04:48:41.383Z,97285.61
2018-12-24T04:49:13.016Z,97278.84
2018-12-24T04:49:44.636Z,97285.67
2018-12-24T04:50:16.220Z,97284.88
2018-12-24T04:50:47.824Z,97291.72
2018-12-24T04:51:19.432Z,97292.21
2018-12-24T04:51:51.016Z,97294.36
2018-12-24T04:52:22.616Z,97293.09
2018-12-24T04:52:54.230Z,97296.50
2018-12-24T04:53:25.831Z,97296.56
2018-12-24T04:53:57.422Z,97305.11
2018-12-24T04:54:29.046Z,97303.83
2018-12-24T04:55:00.643Z,97305.11
2018-12-24T04:55:32.246Z,97308.09
2018-12-24T04:56:04.437Z,97309.42
2018-12-24T04:56:36.052Z,97317.95
2018-12-24T04:57:07.646Z,97315.34
2018-12-24T04:57:39.242Z,97312.86
2018-12-24T04:58:10.838Z,97319.65
2018-12-24T04:58:42.430Z,97322.62
2018-12-24T04:59:14.036Z,97327.73
2018-12-24T04:59:45.630Z,97330.72
2018-12-24T05:00:17.236Z,97333.23
2018-12-24T05:00:48.838Z,97335.78
2018-12-24T05:01:20.433Z,97337.12
2018-12-24T05:01:52.036Z,97338.42
2018-12-24T05:02:23.647Z,97339.28
2018-12-24T05:02:55.246Z,97342.73
2018-12-24T05:03:26.838Z,97352.53
2018-12-24T05:03:58.420Z,97350.39
2018-12-24T05:04:30.056Z,97360.61
2018-12-24T05:05:01.663Z,97356.80
2018-12-24T05:05:33.257Z,97364.04
2018-12-24T05:06:04.851Z,97367.45
2018-12-24T05:06:36.458Z,97372.11
2018-12-24T05:07:08.059Z,97373.82
2018-12-24T05:07:39.651Z,97376.39
2018-12-24T05:08:11.241Z,97379.87
2018-12-24T05:08:42.848Z,97382.05
2018-12-24T05:09:14.493Z,97380.81
2018-12-24T05:09:46.096Z,97377.85
2018-12-24T05:10:17.708Z,97384.68
2018-12-24T05:10:49.302Z,97387.75
2018-12-24T05:11:20.888Z,97397.98
2018-12-24T05:11:52.472Z,97393.77
2018-12-24T05:12:24.080Z,97397.11
2018-12-24T05:12:55.678Z,97392.00
2018-12-24T05:13:27.267Z,97401.36
2018-12-24T05:13:58.866Z,97406.91
2018-12-24T05:14:30.485Z,97401.80
2018-12-24T05:15:02.113Z,97395.90
2018-12-24T05:15:33.731Z,97401.04
2018-12-24T05:16:05.335Z,97407.91
2018-12-24T05:16:36.947Z,97407.05
2018-12-24T05:17:08.533Z,97408.78
2018-12-24T05:17:40.144Z,97421.57
2018-12-24T05:18:11.754Z,97412.19
2018-12-24T05:18:43.345Z,97413.38
2018-12-24T05:19:14.946Z,97414.16
2018-12-24T05:19:46.566Z,97417.05
2018-12-24T05:20:18.148Z,97421.72
2018-12-24T05:20:49.755Z,97422.48
2018-12-24T05:21:21.359Z,97421.17
2018-12-24T05:21:52.958Z,97424.02
2018-12-24T05:22:24.644Z,97427.72
2018-12-24T05:22:56.214Z,97428.43
2018-12-24T05:23:27.808Z,97432.57
2018-12-24T05:23:59.410Z,97433.77
2018-12-24T05:24:31.065Z,97439.70
2018-12-24T05:25:02.690Z,97441.78
2018-12-24T05:25:34.292Z,97441.27
2018-12-24T05:26:05.885Z,97444.66
2018-12-24T05:26:37.468Z,97452.69
2018-12-24T05:27:09.062Z,97453.06
2018-12-24T05:27:40.648Z,97450.84
2018-12-24T05:28:12.256Z,97458.00
2018-12-24T05:28:43.852Z,97455.45
2018-12-24T05:29:15.449Z,97458.80
2018-12-24T05:29:47.085Z,97465.53
2018-12-24T05:30:18.676Z,97461.17
2018-12-24T05:30:50.265Z,97463.69
2018-12-24T05:31:21.851Z,97462.77
2018-12-24T05:31:53.450Z,97468.72
2018-12-24T05:32:25.045Z,97462.23
2018-12-24T05:32:56.652Z,97470.25
2018-12-24T05:33:28.255Z,97478.59
2018-12-24T05:33:59.852Z,97478.45
2018-12-24T05:34:31.465Z,97474.51
2018-12-24T05:35:03.098Z,97479.19
2018-12-24T05:35:34.704Z,97484.23
2018-12-24T05:36:06.303Z,97487.20
2018-12-24T05:36:37.917Z,97485.39
2018-12-24T05:37:09.510Z,97493.03
2018-12-24T05:37:41.103Z,97492.55
2018-12-24T05:38:12.688Z,97490.83
2018-12-24T05:38:44.286Z,97490.30
2018-12-24T05:39:15.882Z,97489.38
2018-12-24T05:39:47.608Z,97493.62
2018-12-24T05:40:19.168Z,97494.92
2018-12-24T05:40:50.751Z,97494.39
2018-12-24T05:41:22.350Z,97502.42
2018-12-24T05:41:53.946Z,97507.50
2018-12-24T05:42:25.556Z,97505.28
2018-12-24T05:42:57.160Z,97507.81
2018-12-24T05:43:28.763Z,97509.52
2018-12-24T05:44:00.372Z,97508.19
2018-12-24T05:44:31.976Z,97513.22
2018-12-24T05:45:03.613Z,97518.32
2018-12-24T05:45:35.206Z,97522.56
2018-12-24T05:46:06.805Z,97517.88
2018-12-24T05:46:38.408Z,97523.92
2018-12-24T05:47:10.005Z,97522.31
2018-12-24T05:47:41.597Z,97524.91
2018-12-24T05:48:13.193Z,97530.09
2018-12-24T05:48:44.804Z,97529.70
2018-12-24T05:49:16.384Z,97528.06
2018-12-24T05:49:47.988Z,97529.80
2018-12-24T05:50:19.620Z,97532.41
2018-12-24T05:50:51.213Z,97537.13
2018-12-24T05:51:22.806Z,97538.84
2018-12-24T05:51:54.407Z,97537.63
2018-12-24T05:52:26.011Z,97540.17
2018-12-24T05:52:57.631Z,97540.10
2018-12-24T05:53:29.229Z,97545.95
2018-12-24T05:54:00.826Z,97552.61
2018-12-24T05:54:32.421Z,97549.09
2018-12-24T05:55:04.043Z,97557.47
2018-12-24T05:55:36.317Z,97555.63
2018-12-24T05:56:07.896Z,97554.27
2018-12-24T05:56:39.505Z,97556.67
2018-12-24T05:57:11.105Z,97555.65
2018-12-24T05:57:42.696Z,97560.86
2018-12-24T05:58:14.280Z,97565.56
2018-12-24T05:58:45.874Z,97567.25
2018-12-24T05:59:17.470Z,97571.07
2018-12-24T05:59:49.082Z,97574.41
2018-12-24T06:00:20.709Z,97569.27
2018-12-24T06:00:52.320Z,97576.45
2018-12-24T06:01:23.922Z,97577.30
2018-12-24T06:01:55.517Z,97582.41
2018-12-24T06:02:27.114Z,97582.41
2018-12-24T06:02:58.732Z,97560.36
2018-12-24T06:03:30.335Z,97590.84
2018-12-24T06:04:01.929Z,97590.34
2018-12-24T06:04:33.531Z,97593.39
2018-12-24T06:05:05.164Z,97598.53
2018-12-24T06:05:36.782Z,97604.97
2018-12-24T06:06:08.402Z,97605.91
2018-12-24T06:06:39.994Z,97607.72
2018-12-24T06:07:11.576Z,97601.77
2018-12-24T06:07:43.184Z,97607.80
2018-12-24T06:08:14.796Z,97609.42
2018-12-24T06:08:46.395Z,97611.72
2018-12-24T06:09:17.972Z,97619.47
2018-12-24T06:09:49.561Z,97619.03
2018-12-24T06:10:21.160Z,97624.09
2018-12-24T06:10:52.758Z,97624.52